Latest Weather Observations for Port Fairy

IDV60801

Issued at 2:05 pm EST Saturday 19 April 2014 (issued every 30 minutes, with the page automatically refreshed every 10 minutes)

About weather observations | Map of weather stations | Latest weather observations for VIC | Other Formats
Station Details ID: 090175 Name: PORT FAIRY AWS Lat: -38.39 Lon: 142.23 Height: 10.0 m
Data from the previous 72 hours. | See also: Recent months at Port Fairy
Date/Time
EST
Temp
°C
App
Temp
°C
Dew
Point
Rel
Hum
%
Delta-T
°C
Wind Press
QNH
hPa
Press
MSL
hPa
Rain
since 9 am
mm
Dir
 
Spd
km/h
Gust
km/h
Spd
kts
Gust
kts
19/02:00pm 15.2 12.2 7.5 60 3.8 WSW 13 19 7 10 1019.7 1019.7 0.0
19/01:30pm 15.4 12.3 7.2 58 4.0 WSW 13 19 7 10 1020.0 - 0.0
19/01:00pm 15.2 11.6 6.7 57 4.1 WSW 15 20 8 11 1020.3 1020.3 0.0
19/12:30pm 16.3 13.6 8.8 61 3.8 WSW 13 19 7 10 1020.7 - 0.0
19/12:00pm 15.7 13.1 7.7 59 4.0 WSW 11 19 6 10 1021.1 1021.1 0.0
19/11:30am 14.0 10.6 7.8 66 3.1 W 15 24 8 13 1021.4 - 0.0
19/11:00am 14.6 12.6 8.8 68 2.9 WSW 9 13 5 7 1021.5 1021.5 0.0
19/10:30am 13.3 9.1 8.2 71 2.5 W 20 26 11 14 1021.7 - 0.0
19/10:00am 14.8 11.8 7.6 62 3.6 WSW 13 19 7 10 1021.7 1021.7 0.0
19/09:30am 14.2 12.2 8.6 69 2.8 W 9 17 5 9 1021.8 - 0.0
19/09:00am 13.8 10.3 7.3 65 3.2 SW 15 22 8 12 1021.7 1021.7 0.2
19/08:30am 13.7 10.7 7.5 66 3.0 SSW 13 19 7 10 1021.5 - 0.2
19/08:00am 13.5 10.6 8.1 70 2.7 SW 13 20 7 11 1021.2 1021.2 0.2
19/07:30am 13.1 9.9 8.4 73 2.3 S 15 20 8 11 1020.9 - 0.2
19/07:00am 12.2 10.0 7.7 74 2.2 WSW 9 17 5 9 1020.8 1020.8 0.2
19/06:30am 12.0 10.3 7.5 74 2.2 S 6 9 3 5 1020.6 - 0.2
19/06:00am 12.8 8.1 7.9 72 2.4 SSE 22 28 12 15 1020.5 1020.5 0.2
19/05:30am 13.0 11.0 8.5 74 2.2 E 9 15 5 8 1020.3 - 0.2
19/05:00am 13.0 9.6 7.7 70 2.6 SSW 15 26 8 14 1020.3 1020.3 0.2
19/04:30am 12.9 10.0 8.0 72 2.4 S 13 20 7 11 1020.2 - 0.2
19/04:00am 13.0 8.9 7.9 71 2.5 SSE 19 26 10 14 1020.3 1020.3 0.2
19/03:30am 13.2 10.0 8.3 72 2.4 S 15 22 8 12 1020.3 - 0.2
19/03:00am 11.7 7.3 7.6 76 2.0 W 20 30 11 16 1020.7 1020.7 0.2
19/02:30am 13.8 8.8 8.2 69 2.8 SW 24 43 13 23 1020.8 - 0.0
19/02:00am 14.2 9.6 6.3 59 3.8 SSW 20 32 11 17 1020.9 1020.9 0.0
19/01:30am 13.9 9.5 7.4 65 3.2 SSE 20 28 11 15 1020.9 - 0.0
19/01:00am 13.9 9.5 7.4 65 3.2 S 20 32 11 17 1021.1 1021.1 0.0
19/12:30am 14.2 9.6 6.6 60 3.7 S 20 26 11 14 1021.0 - 0.0
19/12:00am 14.4 9.4 6.5 59 3.8 SSW 22 32 12 17 1021.1 1021.1 0.0
 
Date/Time
EST
Temp
°C
App
Temp
°C
Dew
Point
Rel
Hum
%
Delta-T
°C
Wind Press
QNH
hPa
Press
MSL
hPa
Rain
since 9 am
mm
Dir
 
Spd
km/h
Gust
km/h
Spd
kts
Gust
kts
18/11:30pm 14.1 9.7 7.6 65 3.2 S 20 32 11 17 1021.2 - 0.0
18/11:00pm 14.1 10.0 7.9 66 3.1 S 19 24 10 13 1021.3 1021.3 0.0
18/10:30pm 14.2 10.1 7.7 65 3.2 SSW 19 26 10 14 1021.5 - 0.0
18/10:00pm 14.4 8.6 7.9 65 3.2 SSW 28 35 15 19 1021.4 1021.4 0.0
18/09:30pm 14.5 9.9 6.6 59 3.8 S 20 28 11 15 1021.3 - 0.0
18/09:00pm 14.4 9.3 7.7 64 3.3 SSW 24 33 13 18 1021.2 1021.2 0.0
18/08:30pm 14.4 8.9 7.7 64 3.3 SSW 26 35 14 19 1021.0 - 0.0
18/08:00pm 14.3 8.9 8.0 66 3.1 SSW 26 35 14 19 1021.0 1021.0 0.0
18/07:30pm 14.4 8.8 8.6 68 2.9 SSW 28 39 15 21 1020.9 - 0.0
18/07:00pm 14.6 8.5 8.3 66 3.2 SW 30 35 16 19 1020.7 1020.7 0.0
18/06:30pm 14.6 9.3 8.3 66 3.2 SW 26 35 14 19 1020.5 - 0.0
18/06:00pm 14.4 8.8 8.6 68 2.9 SW 28 46 15 25 1020.4 1020.4 0.0
18/05:30pm 14.6 8.9 8.3 66 3.2 SW 28 37 15 20 1020.1 - 0.0
18/05:00pm 14.7 8.6 8.2 65 3.2 SW 30 35 16 19 1020.0 1020.0 0.0
18/04:30pm 14.2 9.1 9.2 72 2.5 WSW 26 35 14 19 1019.9 - 0.0
18/04:00pm 14.6 8.1 8.1 65 3.2 SW 32 46 17 25 1019.8 1019.8 0.0
18/03:30pm 16.0 9.4 7.7 58 4.2 WSW 32 39 17 21 1019.5 - 0.0
18/03:00pm 15.1 8.4 8.3 64 3.4 SW 33 50 18 27 1019.4 1019.4 0.0
18/02:57pm 15.2 9.2 8.7 65 3.3 SW 30 50 16 27 1019.4 - 0.0
18/02:30pm 15.7 9.5 7.7 59 4.0 SW 30 39 16 21 1019.2 - 0.0
18/02:00pm 16.2 10.0 7.7 57 4.2 SW 30 39 16 21 1019.0 1019.0 0.0
18/01:30pm 17.1 12.2 9.8 62 3.8 SW 26 37 14 20 1018.9 - 0.0
18/01:00pm 17.0 10.9 8.2 56 4.5 SW 30 41 16 22 1018.8 1018.8 0.0
18/12:30pm 17.0 11.1 9.2 60 4.0 SW 30 44 16 24 1018.7 - 0.0
18/12:00pm 16.4 9.8 8.4 59 4.1 SW 33 43 18 23 1018.7 1018.7 0.0
18/11:30am 15.8 9.0 7.6 58 4.1 SW 33 41 18 22 1018.5 - 0.0
18/11:00am 16.5 11.0 9.2 62 3.8 SW 28 39 15 21 1018.4 1018.4 0.0
18/10:30am 16.0 9.1 8.7 62 3.7 SW 35 48 19 26 1018.2 - 0.0
18/10:00am 15.5 8.1 8.5 63 3.5 SW 37 52 20 28 1018.0 1018.0 0.0
18/09:30am 15.4 8.2 9.1 66 3.2 SW 37 44 20 24 1017.8 - 0.0
18/09:00am 15.0 7.4 10.4 74 2.4 SW 41 52 22 28 1017.6 1017.6 3.2
18/08:30am 14.9 8.5 11.9 82 1.6 SW 37 48 20 26 1016.8 - 3.2
18/08:00am 14.0 8.5 12.4 90 0.9 SW 33 44 18 24 1016.4 1016.4 3.2
18/07:30am 13.4 7.9 12.3 93 0.6 WSW 33 43 18 23 1015.9 - 3.0
18/07:00am 13.4 6.6 12.0 91 0.8 WSW 39 52 21 28 1015.2 1015.2 1.8
18/06:35am 14.6 8.9 13.0 90 0.9 WSW 35 46 19 25 1014.9 - 1.6
18/06:30am 14.5 12.9 12.7 89 1.0 NW 13 26 7 14 1014.4 - 0.4
18/06:00am 14.3 11.8 12.3 88 1.1 NW 17 24 9 13 1013.9 1013.9 0.2
18/05:30am 13.9 12.0 11.8 87 1.1 NNW 13 20 7 11 1014.1 - 0.2
18/05:00am 13.4 11.7 11.3 87 1.1 NNW 11 17 6 9 1013.9 1013.9 0.2
18/04:30am 13.0 11.7 11.2 89 0.9 NNW 9 13 5 7 1014.0 - 0.2
18/04:00am 12.5 11.6 10.7 89 0.9 NW 6 13 3 7 1014.4 1014.4 0.2
18/03:30am 12.4 11.3 10.5 88 1.0 NW 7 15 4 8 1014.8 - 0.0
18/03:00am 11.3 9.1 9.4 88 1.0 N 11 15 6 8 1014.6 1014.6 0.0
18/02:30am 10.9 8.7 9.2 89 0.8 N 11 15 6 8 1014.9 - 0.0
18/02:00am 11.3 9.2 9.7 90 0.8 N 11 15 6 8 1015.3 1015.3 0.0
18/01:30am 10.3 8.0 9.1 92 0.6 N 11 15 6 8 1015.4 - 0.0
18/01:00am 9.9 7.9 8.7 92 0.6 N 9 13 5 7 1015.7 1015.7 0.0
18/12:30am 9.9 7.5 8.7 92 0.6 N 11 13 6 7 1016.1 - 0.0
18/12:00am 10.1 7.4 8.9 92 0.6 N 13 17 7 9 1016.5 1016.5 0.0
 
Date/Time
EST
Temp
°C
App
Temp
°C
Dew
Point
Rel
Hum
%
Delta-T
°C
Wind Press
QNH
hPa
Press
MSL
hPa
Rain
since 9 am
mm
Dir
 
Spd
km/h
Gust
km/h
Spd
kts
Gust
kts
17/11:30pm 10.3 8.0 9.1 92 0.6 N 11 15 6 8 1017.0 - 0.0
17/11:00pm 10.3 8.0 8.9 91 0.7 N 11 15 6 8 1017.6 1017.6 0.0
17/10:30pm 10.4 8.5 9.0 91 0.7 N 9 15 5 8 1018.1 - 0.0
17/10:00pm 11.0 9.2 9.6 91 0.7 N 9 13 5 7 1018.5 1018.5 0.0
17/09:30pm 11.3 9.6 9.7 90 0.8 N 9 11 5 6 1018.4 - 0.0
17/09:00pm 11.5 10.4 9.8 89 0.9 N 6 9 3 5 1018.1 1018.1 0.0
17/08:30pm 12.1 10.9 10.2 88 1.0 NNW 7 11 4 6 1018.3 - 0.0
17/08:00pm 12.5 11.9 10.4 87 1.1 NNW 4 6 2 3 1018.3 1018.3 0.0
17/07:30pm 13.3 12.8 10.8 85 1.3 NW 4 6 2 3 1018.2 - 0.0
17/07:00pm 13.6 12.6 11.0 84 1.4 WNW 7 7 4 4 1018.1 1018.1 0.0
17/06:30pm 14.4 13.5 11.4 82 1.6 W 7 9 4 5 1018.1 - 0.0
17/06:00pm 15.4 13.6 12.2 81 1.7 WSW 13 17 7 9 1018.2 1018.2 0.0
17/05:30pm 16.0 12.8 12.0 77 2.2 WSW 20 24 11 13 1018.2 - 0.0
17/05:00pm 17.0 14.0 12.7 76 2.4 WSW 20 26 11 14 1018.3 1018.3 0.0
17/04:30pm 17.3 13.9 13.6 79 2.1 WSW 24 32 13 17 1018.4 - 0.0
17/04:00pm 17.1 13.9 14.2 83 1.7 WSW 24 32 13 17 1018.5 1018.5 0.0
17/03:30pm 17.7 15.4 14.6 82 1.8 SW 20 30 11 16 1018.3 - 0.0
17/03:00pm 18.0 15.6 14.3 79 2.1 WSW 20 28 11 15 1018.3 1018.3 0.0
17/02:30pm 18.9 17.5 14.4 75 2.6 WSW 15 20 8 11 1018.3 - 0.0
17/02:00pm 21.2 19.6 12.9 59 4.7 NW 13 24 7 13 1018.4 1018.4 0.0
17/01:30pm 21.1 18.7 12.5 58 4.9 NW 17 24 9 13 1018.6 - 0.0
17/01:00pm 20.4 18.2 12.1 59 4.6 NNW 15 24 8 13 1019.0 1019.0 0.0
17/12:30pm 20.9 19.7 12.8 60 4.6 WNW 11 19 6 10 1019.3 - 0.0
17/12:00pm 20.3 18.8 13.0 63 4.1 NW 13 24 7 13 1019.8 1019.8 0.0
17/11:30am 19.5 18.3 12.8 65 3.8 NW 11 19 6 10 1020.1 - 0.0
17/11:00am 19.3 18.2 13.0 67 3.5 NW 11 19 6 10 1020.1 1020.1 0.0
17/10:30am 18.7 17.5 12.9 69 3.3 NNW 11 19 6 10 1020.1 - 0.0
17/10:00am 17.7 17.0 14.4 81 1.9 N 11 15 6 8 1020.4 1020.4 0.0
17/09:30am 15.8 15.7 14.0 89 1.0 NNW 7 11 4 6 1020.5 - 0.0
17/09:00am 13.7 12.8 12.6 93 0.6 N 9 13 5 7 1020.5 1020.5 0.4
17/08:30am 11.6 9.8 10.8 95 0.4 N 11 15 6 8 1020.4 - 0.4
17/08:00am 9.8 7.9 9.2 96 0.3 N 9 15 5 8 1020.2 1020.2 0.4
17/07:30am 8.9 6.8 8.3 96 0.3 N 9 13 5 7 1020.1 - 0.4
17/07:00am 9.0 6.9 8.4 96 0.3 N 9 13 5 7 1019.8 1019.8 0.4
17/06:30am 8.8 6.7 8.2 96 0.3 N 9 15 5 8 1019.6 - 0.4
17/06:00am 8.9 6.8 8.3 96 0.3 N 9 11 5 6 1019.5 1019.5 0.4
17/05:30am 9.2 7.2 8.6 96 0.3 N 9 13 5 7 1019.3 - 0.4
17/05:00am 9.0 6.9 8.4 96 0.3 N 9 11 5 6 1019.3 1019.3 0.4
17/04:30am 8.9 6.8 8.3 96 0.3 N 9 11 5 6 1019.2 - 0.4
17/04:00am 8.9 7.2 8.3 96 0.3 NNE 7 11 4 6 1019.1 1019.1 0.4
17/03:30am 9.2 7.2 8.6 96 0.3 N 9 11 5 6 1019.1 - 0.4
17/03:00am 9.3 7.6 8.5 95 0.4 N 7 11 4 6 1019.4 1019.4 0.4
17/02:30am 9.9 8.0 9.1 95 0.4 N 9 11 5 6 1019.3 - 0.2
17/02:00am 10.2 8.8 9.4 95 0.4 N 7 9 4 5 1019.3 1019.3 0.2
17/01:30am 10.5 9.1 9.7 95 0.4 N 7 7 4 4 1019.5 - 0.2
17/01:00am 10.7 9.6 9.8 94 0.5 N 6 7 3 4 1019.4 1019.4 0.2
17/12:30am 10.8 9.7 9.9 94 0.5 N 6 7 3 4 1019.5 - 0.2
17/12:00am 11.1 10.1 10.2 94 0.5 N 6 9 3 5 1019.6 1019.6 0.2
 
Date/Time
EST
Temp
°C
App
Temp
°C
Dew
Point
Rel
Hum
%
Delta-T
°C
Wind Press
QNH
hPa
Press
MSL
hPa
Rain
since 9 am
mm
Dir
 
Spd
km/h
Gust
km/h
Spd
kts
Gust
kts
16/11:30pm 11.5 10.3 10.4 93 0.6 N 7 9 4 5 1019.7 - 0.2
16/11:00pm 12.0 11.2 10.9 93 0.6 N 6 6 3 3 1019.8 1019.8 0.2
16/10:30pm 12.4 11.6 11.1 92 0.7 NNW 6 7 3 4 1019.9 - 0.2
16/10:00pm 12.9 12.2 11.5 91 0.7 NNW 6 9 3 5 1019.9 1019.9 0.2
16/09:30pm 13.4 13.3 12.0 91 0.8 NW 4 7 2 4 1019.8 - 0.2
16/09:00pm 13.7 13.7 12.3 91 0.8 NW 4 6 2 3 1019.7 1019.7 0.2
16/08:30pm 13.8 14.5 12.2 90 0.9 CALM 0 0 0 0 1019.4 - 0.2
16/08:00pm 14.2 14.6 12.4 89 1.0 NNE 2 4 1 2 1019.1 1019.1 0.2
16/07:30pm 14.5 14.5 12.5 88 1.1 NW 4 6 2 3 1019.4 - 0.2
16/07:00pm 14.9 15.7 12.6 86 1.3 CALM 0 0 0 0 1019.4 1019.4 0.2
16/06:30pm 15.1 15.5 12.4 84 1.5 N 2 4 1 2 1019.2 - 0.0
16/06:00pm 15.4 16.1 12.3 82 1.7 CALM 0 4 0 2 1019.0 1019.0 0.0
16/05:30pm 15.9 15.6 12.6 81 1.8 SW 6 7 3 4 1019.1 - 0.0
16/05:00pm 16.2 15.3 12.7 80 1.9 SW 9 13 5 7 1019.0 1019.0 0.0
16/04:30pm 16.6 14.6 12.6 77 2.2 WSW 15 19 8 10 1019.1 - 0.0
16/04:00pm 17.7 17.4 13.4 76 2.4 SSE 7 11 4 6 1018.9 1018.9 0.0
16/03:30pm 17.8 17.6 13.7 77 2.3 NE 7 9 4 5 1018.8 - 0.0
16/03:00pm 17.9 17.9 14.2 79 2.1 NE 7 9 4 5 1018.6 1018.6 0.0
16/02:30pm 17.3 17.0 13.4 78 2.2 NNE 7 9 4 5 1018.6 - 0.0

Other Formats:

Comma delimited format used in spreadsheet applications
http://www.bom.gov.au/fwo/IDV60801/IDV60801.94830.axf

JavaScript Object Notation format (JSON) in row-major order
http://www.bom.gov.au/fwo/IDV60801/IDV60801.94830.json